Terminal Aerodrome Forecast
Issued by NWS

Home | Current Version | Previous Version | Text Only | Print | Product List | Glossary On
Versions: 1 2 3 4 5 6 7 8 9 10 11 12 13
000
FTUS42 TJSJ 221100 RRA
TAFJMZ
TAF
TJMZ 221139Z 2212/2312 VRB04KT P6SM SKC
     FM221500 27009KT P6SM VCSH SCT030
     FM222330 VRB05KT P6SM FEW030=

USA.gov is the U.S. government's official web portal to all federal, state and local government web resources and services.